sensor_id;sensor_type;location;lat;lon;timestamp;P1;durP1;ratioP1;P2;durP2;ratioP2
26034;SDS011;13809;48.632;11.576;2023-05-19T00:01:52;3.20;;;2.30;;
26034;SDS011;13809;48.632;11.576;2023-05-19T00:06:56;2.80;;;2.40;;
26034;SDS011;13809;48.632;11.576;2023-05-19T00:12:02;3.30;;;2.57;;
26034;SDS011;13809;48.632;11.576;2023-05-19T00:17:07;3.23;;;2.30;;
26034;SDS011;13809;48.632;11.576;2023-05-19T00:22:11;4.87;;;2.43;;
26034;SDS011;13809;48.632;11.576;2023-05-19T00:27:14;3.37;;;2.57;;
26034;SDS011;13809;48.632;11.576;2023-05-19T00:32:18;2.77;;;2.57;;
26034;SDS011;13809;48.632;11.576;2023-05-19T00:37:22;3.50;;;2.53;;
26034;SDS011;13809;48.632;11.576;2023-05-19T00:42:25;3.97;;;2.40;;
26034;SDS011;13809;48.632;11.576;2023-05-19T00:47:30;4.00;;;2.50;;
26034;SDS011;13809;48.632;11.576;2023-05-19T00:52:33;4.33;;;2.70;;
26034;SDS011;13809;48.632;11.576;2023-05-19T00:57:36;3.87;;;2.50;;
26034;SDS011;13809;48.632;11.576;2023-05-19T01:02:41;3.40;;;2.50;;
26034;SDS011;13809;48.632;11.576;2023-05-19T01:07:45;3.03;;;2.50;;
26034;SDS011;13809;48.632;11.576;2023-05-19T01:12:53;3.20;;;2.60;;
26034;SDS011;13809;48.632;11.576;2023-05-19T01:17:59;2.70;;;2.40;;
26034;SDS011;13809;48.632;11.576;2023-05-19T01:23:19;3.10;;;2.80;;
26034;SDS011;13809;48.632;11.576;2023-05-19T01:34:13;2.57;;;2.33;;
26034;SDS011;13809;48.632;11.576;2023-05-19T01:39:18;4.30;;;2.70;;
26034;SDS011;13809;48.632;11.576;2023-05-19T01:44:21;3.97;;;2.50;;
26034;SDS011;13809;48.632;11.576;2023-05-19T01:49:26;2.60;;;2.40;;
26034;SDS011;13809;48.632;11.576;2023-05-19T01:54:29;4.30;;;2.83;;
26034;SDS011;13809;48.632;11.576;2023-05-19T01:59:36;3.93;;;2.40;;
26034;SDS011;13809;48.632;11.576;2023-05-19T02:04:52;3.77;;;2.40;;
26034;SDS011;13809;48.632;11.576;2023-05-19T02:10:04;4.30;;;2.90;;
26034;SDS011;13809;48.632;11.576;2023-05-19T02:15:09;3.60;;;2.70;;
26034;SDS011;13809;48.632;11.576;2023-05-19T02:20:17;2.90;;;2.47;;
26034;SDS011;13809;48.632;11.576;2023-05-19T02:25:20;2.50;;;2.30;;
26034;SDS011;13809;48.632;11.576;2023-05-19T02:30:23;3.40;;;2.77;;
26034;SDS011;13809;48.632;11.576;2023-05-19T02:35:28;4.30;;;2.90;;
26034;SDS011;13809;48.632;11.576;2023-05-19T02:40:31;4.77;;;2.60;;
26034;SDS011;13809;48.632;11.576;2023-05-19T02:45:34;3.20;;;2.60;;
26034;SDS011;13809;48.632;11.576;2023-05-19T02:50:39;3.33;;;2.77;;
26034;SDS011;13809;48.632;11.576;2023-05-19T02:55:43;3.23;;;2.70;;
26034;SDS011;13809;48.632;11.576;2023-05-19T03:00:46;4.70;;;2.80;;
26034;SDS011;13809;48.632;11.576;2023-05-19T03:05:51;3.97;;;2.80;;
26034;SDS011;13809;48.632;11.576;2023-05-19T03:10:54;4.43;;;2.57;;
26034;SDS011;13809;48.632;11.576;2023-05-19T03:15:58;3.83;;;3.10;;
26034;SDS011;13809;48.632;11.576;2023-05-19T03:21:03;3.33;;;2.60;;
26034;SDS011;13809;48.632;11.576;2023-05-19T03:26:07;3.77;;;3.10;;
26034;SDS011;13809;48.632;11.576;2023-05-19T03:31:11;2.93;;;2.60;;
26034;SDS011;13809;48.632;11.576;2023-05-19T03:36:16;2.70;;;2.50;;
26034;SDS011;13809;48.632;11.576;2023-05-19T03:41:19;3.67;;;3.00;;
26034;SDS011;13809;48.632;11.576;2023-05-19T03:46:22;2.50;;;2.30;;
26034;SDS011;13809;48.632;11.576;2023-05-19T03:51:27;3.83;;;2.90;;
26034;SDS011;13809;48.632;11.576;2023-05-19T03:56:31;4.63;;;3.03;;
26034;SDS011;13809;48.632;11.576;2023-05-19T04:01:34;3.33;;;2.70;;
26034;SDS011;13809;48.632;11.576;2023-05-19T04:06:39;2.80;;;2.60;;
26034;SDS011;13809;48.632;11.576;2023-05-19T04:11:42;3.00;;;2.70;;
26034;SDS011;13809;48.632;11.576;2023-05-19T04:16:46;3.53;;;2.50;;
26034;SDS011;13809;48.632;11.576;2023-05-19T04:21:50;5.47;;;3.10;;
26034;SDS011;13809;48.632;11.576;2023-05-19T04:26:54;4.80;;;2.70;;
26034;SDS011;13809;48.632;11.576;2023-05-19T04:31:57;3.20;;;2.60;;
26034;SDS011;13809;48.632;11.576;2023-05-19T04:37:02;2.97;;;2.40;;
26034;SDS011;13809;48.632;11.576;2023-05-19T04:42:07;3.50;;;2.57;;
26034;SDS011;13809;48.632;11.576;2023-05-19T04:47:12;4.97;;;2.60;;
26034;SDS011;13809;48.632;11.576;2023-05-19T04:52:17;3.63;;;3.00;;
26034;SDS011;13809;48.632;11.576;2023-05-19T04:57:22;3.53;;;3.03;;
26034;SDS011;13809;48.632;11.576;2023-05-19T05:02:25;3.60;;;2.90;;
26034;SDS011;13809;48.632;11.576;2023-05-19T05:07:30;4.20;;;2.77;;
26034;SDS011;13809;48.632;11.576;2023-05-19T05:12:34;3.53;;;2.80;;
26034;SDS011;13809;48.632;11.576;2023-05-19T05:17:38;3.37;;;2.73;;
26034;SDS011;13809;48.632;11.576;2023-05-19T05:22:43;4.83;;;3.07;;
26034;SDS011;13809;48.632;11.576;2023-05-19T05:27:47;3.97;;;2.70;;
26034;SDS011;13809;48.632;11.576;2023-05-19T05:32:51;4.47;;;2.73;;
26034;SDS011;13809;48.632;11.576;2023-05-19T05:37:56;4.33;;;2.77;;
26034;SDS011;13809;48.632;11.576;2023-05-19T05:43:00;4.27;;;3.10;;
26034;SDS011;13809;48.632;11.576;2023-05-19T05:48:03;4.53;;;3.10;;
26034;SDS011;13809;48.632;11.576;2023-05-19T05:53:08;4.10;;;3.03;;
26034;SDS011;13809;48.632;11.576;2023-05-19T05:58:17;4.43;;;3.10;;
26034;SDS011;13809;48.632;11.576;2023-05-19T06:03:21;4.23;;;3.50;;
26034;SDS011;13809;48.632;11.576;2023-05-19T06:08:26;4.90;;;3.47;;
26034;SDS011;13809;48.632;11.576;2023-05-19T06:13:29;5.40;;;3.30;;
26034;SDS011;13809;48.632;11.576;2023-05-19T06:18:32;5.60;;;3.70;;
26034;SDS011;13809;48.632;11.576;2023-05-19T06:23:37;7.13;;;3.80;;
26034;SDS011;13809;48.632;11.576;2023-05-19T06:28:40;4.00;;;3.53;;
26034;SDS011;13809;48.632;11.576;2023-05-19T06:33:43;4.23;;;3.50;;
26034;SDS011;13809;48.632;11.576;2023-05-19T06:38:48;4.63;;;3.67;;
26034;SDS011;13809;48.632;11.576;2023-05-19T06:43:51;6.17;;;3.90;;
26034;SDS011;13809;48.632;11.576;2023-05-19T06:48:54;6.03;;;3.90;;
26034;SDS011;13809;48.632;11.576;2023-05-19T06:53:58;4.10;;;3.63;;
26034;SDS011;13809;48.632;11.576;2023-05-19T06:59:02;5.43;;;3.60;;
26034;SDS011;13809;48.632;11.576;2023-05-19T07:04:05;5.57;;;3.77;;
26034;SDS011;13809;48.632;11.576;2023-05-19T07:09:09;6.23;;;3.90;;
26034;SDS011;13809;48.632;11.576;2023-05-19T07:14:13;5.70;;;4.03;;
26034;SDS011;13809;48.632;11.576;2023-05-19T07:19:16;4.07;;;3.67;;
26034;SDS011;13809;48.632;11.576;2023-05-19T07:24:21;4.63;;;3.77;;
26034;SDS011;13809;48.632;11.576;2023-05-19T07:29:25;5.20;;;3.47;;
26034;SDS011;13809;48.632;11.576;2023-05-19T07:34:28;4.20;;;3.77;;
26034;SDS011;13809;48.632;11.576;2023-05-19T07:39:33;4.57;;;4.07;;
26034;SDS011;13809;48.632;11.576;2023-05-19T07:44:37;3.53;;;3.23;;
26034;SDS011;13809;48.632;11.576;2023-05-19T07:49:40;3.73;;;3.13;;
26034;SDS011;13809;48.632;11.576;2023-05-19T07:54:44;5.00;;;3.63;;
26034;SDS011;13809;48.632;11.576;2023-05-19T07:59:47;4.70;;;3.80;;
26034;SDS011;13809;48.632;11.576;2023-05-19T08:04:51;4.27;;;3.47;;
26034;SDS011;13809;48.632;11.576;2023-05-19T08:09:56;3.60;;;3.30;;
26034;SDS011;13809;48.632;11.576;2023-05-19T08:14:59;4.73;;;3.53;;
26034;SDS011;13809;48.632;11.576;2023-05-19T08:20:02;4.60;;;3.07;;
26034;SDS011;13809;48.632;11.576;2023-05-19T08:25:08;3.90;;;3.37;;
26034;SDS011;13809;48.632;11.576;2023-05-19T08:30:12;4.53;;;3.37;;
26034;SDS011;13809;48.632;11.576;2023-05-19T08:35:15;5.07;;;3.40;;
26034;SDS011;13809;48.632;11.576;2023-05-19T08:40:19;3.60;;;2.90;;
26034;SDS011;13809;48.632;11.576;2023-05-19T08:45:24;5.07;;;3.30;;
26034;SDS011;13809;48.632;11.576;2023-05-19T08:50:28;3.83;;;3.53;;
26034;SDS011;13809;48.632;11.576;2023-05-19T08:55:35;4.23;;;3.20;;
26034;SDS011;13809;48.632;11.576;2023-05-19T09:00:45;3.93;;;2.73;;
26034;SDS011;13809;48.632;11.576;2023-05-19T09:05:49;3.93;;;3.27;;
26034;SDS011;13809;48.632;11.576;2023-05-19T09:10:54;4.20;;;3.17;;
26034;SDS011;13809;48.632;11.576;2023-05-19T09:15:58;3.63;;;3.00;;
26034;SDS011;13809;48.632;11.576;2023-05-19T09:26:36;4.67;;;2.87;;
26034;SDS011;13809;48.632;11.576;2023-05-19T09:31:46;3.40;;;3.00;;
26034;SDS011;13809;48.632;11.576;2023-05-19T09:36:50;2.93;;;2.70;;
26034;SDS011;13809;48.632;11.576;2023-05-19T09:41:56;4.10;;;2.60;;
26034;SDS011;13809;48.632;11.576;2023-05-19T09:46:59;3.60;;;2.60;;
26034;SDS011;13809;48.632;11.576;2023-05-19T09:52:02;2.73;;;2.50;;
26034;SDS011;13809;48.632;11.576;2023-05-19T09:57:08;3.20;;;2.50;;
26034;SDS011;13809;48.632;11.576;2023-05-19T10:02:13;2.83;;;2.33;;
26034;SDS011;13809;48.632;11.576;2023-05-19T10:07:21;2.60;;;2.40;;
26034;SDS011;13809;48.632;11.576;2023-05-19T10:12:27;2.60;;;2.40;;
26034;SDS011;13809;48.632;11.576;2023-05-19T10:17:32;2.53;;;2.33;;
26034;SDS011;13809;48.632;11.576;2023-05-19T10:22:37;3.23;;;2.50;;
26034;SDS011;13809;48.632;11.576;2023-05-19T10:27:42;2.33;;;2.10;;
26034;SDS011;13809;48.632;11.576;2023-05-19T10:32:50;3.33;;;2.40;;
26034;SDS011;13809;48.632;11.576;2023-05-19T10:38:00;3.33;;;2.47;;
26034;SDS011;13809;48.632;11.576;2023-05-19T10:43:20;3.30;;;2.50;;
26034;SDS011;13809;48.632;11.576;2023-05-19T10:48:27;3.13;;;2.60;;
26034;SDS011;13809;48.632;11.576;2023-05-19T10:53:35;3.20;;;2.40;;
26034;SDS011;13809;48.632;11.576;2023-05-19T10:58:51;2.60;;;2.40;;
26034;SDS011;13809;48.632;11.576;2023-05-19T11:03:54;3.07;;;2.43;;
26034;SDS011;13809;48.632;11.576;2023-05-19T11:08:59;2.73;;;2.37;;
26034;SDS011;13809;48.632;11.576;2023-05-19T11:14:10;3.53;;;2.33;;
26034;SDS011;13809;48.632;11.576;2023-05-19T11:19:18;3.80;;;2.33;;
26034;SDS011;13809;48.632;11.576;2023-05-19T11:24:33;4.30;;;2.40;;
26034;SDS011;13809;48.632;11.576;2023-05-19T11:29:39;3.60;;;2.20;;
26034;SDS011;13809;48.632;11.576;2023-05-19T11:34:46;2.37;;;2.17;;
26034;SDS011;13809;48.632;11.576;2023-05-19T11:39:50;2.40;;;2.20;;
26034;SDS011;13809;48.632;11.576;2023-05-19T11:45:02;3.50;;;2.43;;
26034;SDS011;13809;48.632;11.576;2023-05-19T11:50:06;2.83;;;2.30;;
26034;SDS011;13809;48.632;11.576;2023-05-19T11:55:14;4.13;;;2.50;;
26034;SDS011;13809;48.632;11.576;2023-05-19T12:00:19;2.30;;;2.10;;
26034;SDS011;13809;48.632;11.576;2023-05-19T12:05:25;2.50;;;2.27;;
26034;SDS011;13809;48.632;11.576;2023-05-19T12:10:30;3.80;;;2.63;;
26034;SDS011;13809;48.632;11.576;2023-05-19T12:15:35;2.43;;;2.23;;
26034;SDS011;13809;48.632;11.576;2023-05-19T12:20:39;2.53;;;2.20;;
26034;SDS011;13809;48.632;11.576;2023-05-19T12:25:43;2.83;;;2.20;;
26034;SDS011;13809;48.632;11.576;2023-05-19T12:30:48;2.67;;;2.43;;
26034;SDS011;13809;48.632;11.576;2023-05-19T12:35:53;3.53;;;2.40;;
26034;SDS011;13809;48.632;11.576;2023-05-19T12:40:57;2.73;;;2.27;;
26034;SDS011;13809;48.632;11.576;2023-05-19T12:46:09;2.60;;;2.20;;
26034;SDS011;13809;48.632;11.576;2023-05-19T12:51:16;2.63;;;2.07;;
26034;SDS011;13809;48.632;11.576;2023-05-19T12:56:19;3.30;;;2.33;;
26034;SDS011;13809;48.632;11.576;2023-05-19T13:01:28;2.17;;;2.07;;
26034;SDS011;13809;48.632;11.576;2023-05-19T13:06:32;2.23;;;2.10;;
26034;SDS011;13809;48.632;11.576;2023-05-19T13:11:35;3.33;;;2.10;;
26034;SDS011;13809;48.632;11.576;2023-05-19T13:16:41;2.57;;;2.00;;
26034;SDS011;13809;48.632;11.576;2023-05-19T13:21:44;4.13;;;2.20;;
26034;SDS011;13809;48.632;11.576;2023-05-19T13:26:48;2.67;;;2.47;;
26034;SDS011;13809;48.632;11.576;2023-05-19T13:31:55;2.50;;;2.17;;
26034;SDS011;13809;48.632;11.576;2023-05-19T13:37:01;2.20;;;2.00;;
26034;SDS011;13809;48.632;11.576;2023-05-19T13:42:06;2.80;;;1.90;;
26034;SDS011;13809;48.632;11.576;2023-05-19T13:47:11;2.57;;;2.37;;
26034;SDS011;13809;48.632;11.576;2023-05-19T13:52:14;2.67;;;2.47;;
26034;SDS011;13809;48.632;11.576;2023-05-19T13:57:18;5.60;;;2.30;;
26034;SDS011;13809;48.632;11.576;2023-05-19T14:02:22;3.27;;;2.30;;
26034;SDS011;13809;48.632;11.576;2023-05-19T14:07:26;2.73;;;2.23;;
26034;SDS011;13809;48.632;11.576;2023-05-19T14:12:30;4.70;;;2.40;;
26034;SDS011;13809;48.632;11.576;2023-05-19T14:17:57;2.27;;;1.90;;
26034;SDS011;13809;48.632;11.576;2023-05-19T14:23:01;2.13;;;1.93;;
26034;SDS011;13809;48.632;11.576;2023-05-19T14:28:04;2.37;;;2.17;;
26034;SDS011;13809;48.632;11.576;2023-05-19T14:33:09;3.30;;;2.20;;
26034;SDS011;13809;48.632;11.576;2023-05-19T14:38:12;2.67;;;2.00;;
26034;SDS011;13809;48.632;11.576;2023-05-19T14:43:16;2.87;;;2.27;;
26034;SDS011;13809;48.632;11.576;2023-05-19T14:48:21;2.63;;;2.10;;
26034;SDS011;13809;48.632;11.576;2023-05-19T14:53:24;3.13;;;2.20;;
26034;SDS011;13809;48.632;11.576;2023-05-19T14:58:27;2.77;;;2.00;;
26034;SDS011;13809;48.632;11.576;2023-05-19T15:03:32;2.63;;;2.37;;
26034;SDS011;13809;48.632;11.576;2023-05-19T15:08:35;2.37;;;1.90;;
26034;SDS011;13809;48.632;11.576;2023-05-19T15:13:40;2.33;;;2.13;;
26034;SDS011;13809;48.632;11.576;2023-05-19T15:18:45;3.90;;;2.30;;
26034;SDS011;13809;48.632;11.576;2023-05-19T15:23:48;2.17;;;2.00;;
26034;SDS011;13809;48.632;11.576;2023-05-19T15:28:52;2.20;;;2.00;;
26034;SDS011;13809;48.632;11.576;2023-05-19T15:33:56;2.23;;;2.03;;
26034;SDS011;13809;48.632;11.576;2023-05-19T15:38:59;2.40;;;2.10;;
26034;SDS011;13809;48.632;11.576;2023-05-19T15:44:04;2.73;;;2.53;;
26034;SDS011;13809;48.632;11.576;2023-05-19T15:49:09;2.07;;;1.97;;
26034;SDS011;13809;48.632;11.576;2023-05-19T15:54:13;2.20;;;2.07;;
26034;SDS011;13809;48.632;11.576;2023-05-19T15:59:16;2.73;;;2.43;;
26034;SDS011;13809;48.632;11.576;2023-05-19T16:04:21;2.40;;;2.20;;
26034;SDS011;13809;48.632;11.576;2023-05-19T16:09:24;2.20;;;1.70;;
26034;SDS011;13809;48.632;11.576;2023-05-19T16:14:27;2.10;;;2.00;;
26034;SDS011;13809;48.632;11.576;2023-05-19T16:19:37;2.53;;;2.10;;
26034;SDS011;13809;48.632;11.576;2023-05-19T16:24:41;2.50;;;2.30;;
26034;SDS011;13809;48.632;11.576;2023-05-19T16:29:44;2.20;;;2.00;;
26034;SDS011;13809;48.632;11.576;2023-05-19T16:34:48;2.00;;;1.90;;
26034;SDS011;13809;48.632;11.576;2023-05-19T16:39:52;2.93;;;2.13;;
26034;SDS011;13809;48.632;11.576;2023-05-19T16:44:55;2.10;;;2.00;;
26034;SDS011;13809;48.632;11.576;2023-05-19T16:49:59;3.73;;;2.10;;
26034;SDS011;13809;48.632;11.576;2023-05-19T16:55:03;2.63;;;2.13;;
26034;SDS011;13809;48.632;11.576;2023-05-19T17:00:07;2.30;;;2.10;;
26034;SDS011;13809;48.632;11.576;2023-05-19T17:05:12;2.87;;;2.07;;
26034;SDS011;13809;48.632;11.576;2023-05-19T17:10:16;2.70;;;1.97;;
26034;SDS011;13809;48.632;11.576;2023-05-19T17:15:19;2.13;;;1.93;;
26034;SDS011;13809;48.632;11.576;2023-05-19T17:20:23;2.17;;;2.00;;
26034;SDS011;13809;48.632;11.576;2023-05-19T17:25:26;1.90;;;1.80;;
26034;SDS011;13809;48.632;11.576;2023-05-19T17:30:30;2.20;;;2.00;;
26034;SDS011;13809;48.632;11.576;2023-05-19T18:07:45;3.83;;;2.00;;
26034;SDS011;13809;48.632;11.576;2023-05-19T18:12:50;2.00;;;1.90;;
26034;SDS011;13809;48.632;11.576;2023-05-19T18:17:54;2.10;;;2.00;;
26034;SDS011;13809;48.632;11.576;2023-05-19T18:22:58;1.93;;;1.80;;
26034;SDS011;13809;48.632;11.576;2023-05-19T18:28:02;2.43;;;2.07;;
26034;SDS011;13809;48.632;11.576;2023-05-19T18:33:06;2.43;;;2.23;;
26034;SDS011;13809;48.632;11.576;2023-05-19T18:38:10;2.80;;;1.93;;
26034;SDS011;13809;48.632;11.576;2023-05-19T18:43:14;2.03;;;1.90;;
26034;SDS011;13809;48.632;11.576;2023-05-19T18:48:17;2.10;;;2.00;;
26034;SDS011;13809;48.632;11.576;2023-05-19T18:53:23;2.87;;;2.00;;
26034;SDS011;13809;48.632;11.576;2023-05-19T18:58:26;3.13;;;1.93;;
26034;SDS011;13809;48.632;11.576;2023-05-19T19:03:30;2.10;;;2.00;;
26034;SDS011;13809;48.632;11.576;2023-05-19T19:08:34;2.53;;;2.30;;
26034;SDS011;13809;48.632;11.576;2023-05-19T19:13:38;2.23;;;2.10;;
26034;SDS011;13809;48.632;11.576;2023-05-19T19:18:41;2.10;;;1.90;;
26034;SDS011;13809;48.632;11.576;2023-05-19T19:23:46;2.40;;;2.20;;
26034;SDS011;13809;48.632;11.576;2023-05-19T19:28:49;2.20;;;2.00;;
26034;SDS011;13809;48.632;11.576;2023-05-19T19:33:53;2.00;;;1.90;;
26034;SDS011;13809;48.632;11.576;2023-05-19T19:39:00;2.10;;;2.00;;
26034;SDS011;13809;48.632;11.576;2023-05-19T19:44:03;2.07;;;1.97;;
26034;SDS011;13809;48.632;11.576;2023-05-19T19:49:07;2.03;;;1.90;;
26034;SDS011;13809;48.632;11.576;2023-05-19T19:54:11;2.57;;;1.97;;
26034;SDS011;13809;48.632;11.576;2023-05-19T19:59:14;2.43;;;2.23;;
26034;SDS011;13809;48.632;11.576;2023-05-19T20:04:18;2.73;;;2.17;;
26034;SDS011;13809;48.632;11.576;2023-05-19T20:09:23;2.17;;;2.03;;
26034;SDS011;13809;48.632;11.576;2023-05-19T20:14:26;3.10;;;2.17;;
26034;SDS011;13809;48.632;11.576;2023-05-19T20:19:29;2.13;;;2.03;;
26034;SDS011;13809;48.632;11.576;2023-05-19T20:24:34;2.00;;;1.90;;
26034;SDS011;13809;48.632;11.576;2023-05-19T20:29:37;2.13;;;1.93;;
26034;SDS011;13809;48.632;11.576;2023-05-19T20:34:41;3.77;;;2.03;;
26034;SDS011;13809;48.632;11.576;2023-05-19T20:39:45;2.67;;;2.47;;
26034;SDS011;13809;48.632;11.576;2023-05-19T20:44:49;4.63;;;2.13;;
26034;SDS011;13809;48.632;11.576;2023-05-19T20:49:52;1.90;;;1.80;;
26034;SDS011;13809;48.632;11.576;2023-05-19T20:54:57;3.27;;;2.23;;
26034;SDS011;13809;48.632;11.576;2023-05-19T21:00:00;2.30;;;2.10;;
26034;SDS011;13809;48.632;11.576;2023-05-19T21:05:04;2.23;;;2.10;;
26034;SDS011;13809;48.632;11.576;2023-05-19T21:10:09;2.30;;;2.10;;
26034;SDS011;13809;48.632;11.576;2023-05-19T21:15:14;2.50;;;2.30;;
26034;SDS011;13809;48.632;11.576;2023-05-19T21:20:17;2.30;;;2.20;;
26034;SDS011;13809;48.632;11.576;2023-05-19T21:25:22;2.33;;;2.23;;
26034;SDS011;13809;48.632;11.576;2023-05-19T21:30:25;2.33;;;2.23;;
26034;SDS011;13809;48.632;11.576;2023-05-19T21:35:28;2.40;;;2.20;;
26034;SDS011;13809;48.632;11.576;2023-05-19T21:40:33;2.27;;;2.07;;
26034;SDS011;13809;48.632;11.576;2023-05-19T21:45:36;2.10;;;2.00;;
26034;SDS011;13809;48.632;11.576;2023-05-19T21:50:39;2.27;;;2.13;;
26034;SDS011;13809;48.632;11.576;2023-05-19T21:55:44;2.13;;;2.03;;
26034;SDS011;13809;48.632;11.576;2023-05-19T22:00:48;2.33;;;2.13;;
26034;SDS011;13809;48.632;11.576;2023-05-19T22:05:51;2.20;;;2.10;;
26034;SDS011;13809;48.632;11.576;2023-05-19T22:10:57;2.50;;;2.30;;
26034;SDS011;13809;48.632;11.576;2023-05-19T22:16:00;2.30;;;2.20;;
26034;SDS011;13809;48.632;11.576;2023-05-19T22:21:05;2.63;;;2.43;;
26034;SDS011;13809;48.632;11.576;2023-05-19T22:26:11;2.43;;;2.30;;
26034;SDS011;13809;48.632;11.576;2023-05-19T22:31:14;2.73;;;2.53;;
26034;SDS011;13809;48.632;11.576;2023-05-19T22:36:18;2.37;;;2.20;;
26034;SDS011;13809;48.632;11.576;2023-05-19T22:41:22;2.70;;;2.47;;
26034;SDS011;13809;48.632;11.576;2023-05-19T22:46:25;2.57;;;2.37;;
26034;SDS011;13809;48.632;11.576;2023-05-19T22:51:29;2.20;;;2.10;;
26034;SDS011;13809;48.632;11.576;2023-05-19T22:56:35;2.40;;;2.20;;
26034;SDS011;13809;48.632;11.576;2023-05-19T23:01:38;2.23;;;2.10;;
26034;SDS011;13809;48.632;11.576;2023-05-19T23:06:41;2.77;;;2.10;;
26034;SDS011;13809;48.632;11.576;2023-05-19T23:11:46;1.97;;;1.87;;
26034;SDS011;13809;48.632;11.576;2023-05-19T23:16:49;2.10;;;1.90;;
26034;SDS011;13809;48.632;11.576;2023-05-19T23:21:53;2.10;;;2.00;;
26034;SDS011;13809;48.632;11.576;2023-05-19T23:26:57;2.20;;;2.10;;
26034;SDS011;13809;48.632;11.576;2023-05-19T23:32:01;2.40;;;2.20;;
26034;SDS011;13809;48.632;11.576;2023-05-19T23:37:04;3.27;;;2.13;;
26034;SDS011;13809;48.632;11.576;2023-05-19T23:42:09;2.63;;;2.43;;
26034;SDS011;13809;48.632;11.576;2023-05-19T23:47:13;3.20;;;2.30;;
26034;SDS011;13809;48.632;11.576;2023-05-19T23:52:16;2.73;;;2.20;;
26034;SDS011;13809;48.632;11.576;2023-05-19T23:57:21;2.33;;;2.20;;
